Time;durP1;ratioP1;P1;durP2;ratioP2;P2;SDS_P1;SDS_P2;PMS_P1;PMS_P2;Temp;Humidity;BMP_temperature;BMP_pressure;BME280_temperature;BME280_humidity;BME280_pressure;Samples;Min_cycle;Max_cycle;Signal;HPM_P1;HPM_P2
2022/06/13 00:01:19;;;;;;;0.40;0.30;;;;;;;19.02;68.34;100481.25;4994012;28;20457;-50
2022/06/13 00:03:46;;;;;;;0.40;0.23;;;;;;;18.96;68.53;100480.78;4982518;28;20511;-50
2022/06/13 00:06:13;;;;;;;0.40;0.30;;;;;;;19.45;66.53;100492.97;4983478;28;20458;-50
2022/06/13 00:08:40;;;;;;;0.50;0.50;;;;;;;19.27;66.85;100496.81;4988916;28;20450;-50
2022/06/13 00:11:10;;;;;;;6.53;1.00;;;;;;;19.39;66.68;100500.56;4988193;28;20454;-51
2022/06/13 00:13:38;;;;;;;0.83;0.83;;;;;;;19.66;65.82;100509.69;4989113;28;20890;-50
2022/06/13 00:16:05;;;;;;;0.50;0.50;;;;;;;19.49;66.65;100516.09;4975904;28;20453;-50
2022/06/13 00:18:32;;;;;;;0.40;0.20;;;;;;;19.52;66.90;100515.03;4988544;28;20458;-50
2022/06/13 00:20:58;;;;;;;0.50;0.40;;;;;;;19.49;67.45;100513.41;4988325;28;20449;-50
2022/06/13 00:23:25;;;;;;;0.40;0.20;;;;;;;19.62;67.37;100508.16;4962833;28;20537;-50
2022/06/13 00:25:52;;;;;;;2.00;1.67;;;;;;;19.79;66.77;100507.06;4988572;28;20544;-50
2022/06/13 00:28:18;;;;;;;0.40;0.30;;;;;;;19.36;67.96;100514.25;4988580;28;20490;-50
2022/06/13 00:30:45;;;;;;;3.70;1.47;;;;;;;19.61;67.82;100521.72;4988520;28;20453;-50
2022/06/13 00:33:12;;;;;;;0.50;0.30;;;;;;;19.35;68.99;100515.22;4982290;28;20540;-51
2022/06/13 00:35:38;;;;;;;7.47;2.10;;;;;;;19.42;68.77;100509.34;4981657;28;20454;-50
2022/06/13 00:38:05;;;;;;;0.50;0.30;;;;;;;19.39;68.61;100512.22;4987696;28;20447;-51
2022/06/13 00:40:33;;;;;;;0.40;0.20;;;;;;;19.09;70.09;100512.28;4987243;28;20453;-50
2022/06/13 00:43:01;;;;;;;0.70;0.70;;;;;;;19.33;69.18;100509.91;4982899;28;20536;-50
2022/06/13 00:45:36;;;;;;;0.90;0.70;;;;;;;19.12;70.21;100516.59;4981401;28;20476;-50
2022/06/13 00:48:04;;;;;;;0.40;0.30;;;;;;;19.25;70.34;100520.28;4993865;28;20492;-50
2022/06/13 00:50:37;;;;;;;0.67;0.67;;;;;;;19.02;70.95;100518.97;4965914;28;20455;-51
2022/06/13 00:53:10;;;;;;;0.40;0.20;;;;;;;18.68;72.09;100519.25;4985208;28;20485;-51
2022/06/13 00:56:02;;;;;;;0.40;0.20;;;;;;;18.91;71.16;100527.72;4981079;28;20516;-50
2022/06/13 00:58:34;;;;;;;0.83;0.77;;;;;;;18.92;70.89;100520.50;4981873;28;20442;-50
2022/06/13 01:01:02;;;;;;;0.50;0.30;;;;;;;18.94;70.68;100521.28;4985327;28;20478;-50
2022/06/13 01:03:29;;;;;;;0.40;0.20;;;;;;;18.73;71.66;100511.75;4987863;28;21075;-50
2022/06/13 01:06:01;;;;;;;0.50;0.50;;;;;;;18.56;72.23;100520.78;4984235;28;20453;-50
2022/06/13 01:08:31;;;;;;;0.43;0.27;;;;;;;18.67;71.49;100507.59;4980957;28;20489;-51
2022/06/13 01:11:16;;;;;;;0.40;0.30;;;;;;;18.83;70.87;100513.81;4984376;28;20856;-50
2022/06/13 01:13:52;;;;;;;1.23;1.23;;;;;;;19.08;69.52;100515.94;4968568;28;20901;-50
2022/06/13 01:16:26;;;;;;;2.43;1.07;;;;;;;19.36;68.04;100506.16;4978121;28;20450;-51
2022/06/13 01:18:56;;;;;;;4.97;1.00;;;;;;;19.57;67.11;100512.94;4983709;28;20448;-51
2022/06/13 01:21:41;;;;;;;0.40;0.20;;;;;;;19.62;66.83;100521.63;4980825;28;20449;-51
2022/06/13 01:24:40;;;;;;;0.40;0.30;;;;;;;19.13;68.97;100521.03;4981498;28;20471;-50
2022/06/13 01:27:18;;;;;;;0.60;0.60;;;;;;;19.20;68.26;100519.72;4933187;28;20486;-51
2022/06/13 01:30:10;;;;;;;0.40;0.20;;;;;;;19.18;68.44;100524.31;4986920;28;20454;-50
2022/06/13 01:33:05;;;;;;;1.43;0.87;;;;;;;18.96;69.22;100522.03;4986797;28;20997;-50
2022/06/13 01:35:41;;;;;;;0.40;0.20;;;;;;;18.67;70.43;100534.53;4987104;28;21021;-51
2022/06/13 01:38:24;;;;;;;0.40;0.20;;;;;;;18.18;72.87;100534.59;4981785;28;20469;-50
2022/06/13 01:40:56;;;;;;;0.40;0.20;;;;;;;17.95;74.80;100533.19;4980409;28;20847;-50
2022/06/13 01:44:06;;;;;;;0.40;0.30;;;;;;;17.56;77.53;100532.66;4982705;28;20482;-50
2022/06/13 01:46:35;;;;;;;0.50;0.30;;;;;;;16.95;79.66;100535.84;4983111;28;20487;-50
2022/06/13 01:49:18;;;;;;;0.50;0.30;;;;;;;16.95;80.01;100531.34;4980222;28;20537;-51
2022/06/13 01:52:16;;;;;;;0.40;0.20;;;;;;;16.54;81.99;100523.50;4980269;28;20474;-51
2022/06/13 01:54:57;;;;;;;1.27;1.27;;;;;;;16.43;83.16;100527.66;4982202;28;20482;-51
2022/06/13 01:57:46;;;;;;;0.60;0.40;;;;;;;16.62;82.82;100519.59;4986848;28;20504;-50
2022/06/13 02:00:27;;;;;;;0.40;0.20;;;;;;;16.54;83.15;100525.31;4984147;28;20447;-50
2022/06/13 02:02:57;;;;;;;0.40;0.20;;;;;;;16.42;83.63;100532.16;4966087;28;20481;-50
2022/06/13 02:05:36;;;;;;;0.40;0.20;;;;;;;16.36;84.07;100531.59;4986607;28;20878;-50
2022/06/13 02:08:26;;;;;;;0.47;0.37;;;;;;;16.14;85.20;100535.31;4986500;28;20539;-50
2022/06/13 02:11:31;;;;;;;0.40;0.30;;;;;;;15.94;86.14;100538.94;4984482;28;20489;-50
2022/06/13 02:14:09;;;;;;;1.07;1.07;;;;;;;15.87;86.84;100539.28;4933697;28;20473;-50
2022/06/13 02:16:46;;;;;;;0.73;0.73;;;;;;;16.18;85.59;100531.56;4979095;28;20450;-50
2022/06/13 02:19:32;;;;;;;0.40;0.20;;;;;;;16.37;84.21;100531.53;4981654;28;20446;-50
2022/06/13 02:22:09;;;;;;;0.40;0.20;;;;;;;16.42;83.25;100534.84;4969700;28;20460;-50
2022/06/13 02:24:41;;;;;;;44.37;1.43;;;;;;;16.64;82.43;100529.28;4979325;28;20497;-51
2022/06/13 02:27:10;;;;;;;0.40;0.20;;;;;;;16.44;82.93;100534.75;4982324;28;20536;-50
2022/06/13 02:29:51;;;;;;;0.47;0.27;;;;;;;16.25;83.40;100530.28;4986623;28;20458;-50
2022/06/13 02:32:32;;;;;;;0.40;0.20;;;;;;;16.19;83.91;100525.25;4985590;28;20453;-50
2022/06/13 02:35:14;;;;;;;6.20;1.23;;;;;;;16.09;84.58;100523.06;4969425;28;20449;-50
2022/06/13 02:37:49;;;;;;;0.40;0.20;;;;;;;15.59;86.75;100518.19;4980035;28;20594;-50
2022/06/13 02:40:29;;;;;;;0.40;0.20;;;;;;;15.64;86.56;100522.47;4981407;28;20446;-50
2022/06/13 02:43:05;;;;;;;0.40;0.30;;;;;;;15.63;86.42;100525.22;4966961;28;20500;-50
2022/06/13 02:45:51;;;;;;;0.40;0.20;;;;;;;15.31;88.12;100523.94;4979586;28;20817;-50
2022/06/13 02:48:25;;;;;;;0.40;0.20;;;;;;;15.27;88.17;100525.88;4982083;28;20526;-50
2022/06/13 02:51:17;;;;;;;0.40;0.30;;;;;;;15.31;87.46;100530.16;4986379;28;20998;-50
2022/06/13 02:54:10;;;;;;;0.40;0.20;;;;;;;15.02;89.06;100533.22;4985722;28;20485;-50
2022/06/13 02:57:24;;;;;;;0.40;0.30;;;;;;;14.87;89.57;100534.75;4985880;28;20503;-51
2022/06/13 02:59:51;;;;;;;0.40;0.20;;;;;;;14.76;90.21;100535.22;4978483;28;20934;-50
2022/06/13 03:02:28;;;;;;;0.40;0.30;;;;;;;14.77;90.55;100534.28;4980410;28;20457;-50
2022/06/13 03:05:04;;;;;;;0.40;0.20;;;;;;;14.65;90.54;100537.44;4983282;28;20446;-50
2022/06/13 03:07:40;;;;;;;0.40;0.20;;;;;;;14.64;90.72;100535.72;4985471;28;20485;-50
2022/06/13 03:10:06;;;;;;;0.40;0.30;;;;;;;14.60;90.76;100551.97;4980297;28;20442;-50
2022/06/13 03:12:54;;;;;;;0.50;0.30;;;;;;;14.49;91.38;100555.94;4987013;28;20453;-50
2022/06/13 03:15:30;;;;;;;0.40;0.30;;;;;;;14.38;91.85;100555.47;4977046;28;21262;-50
2022/06/13 03:18:09;;;;;;;0.40;0.27;;;;;;;14.19;92.56;100560.69;4990388;28;20447;-50
2022/06/13 03:20:43;;;;;;;0.40;0.20;;;;;;;14.24;92.83;100556.00;4986666;28;20496;-50
2022/06/13 03:23:25;;;;;;;0.40;0.20;;;;;;;14.18;93.10;100555.41;4991239;28;20520;-50
2022/06/13 03:26:02;;;;;;;0.40;0.20;;;;;;;14.31;91.83;100556.66;4989501;28;20483;-50
2022/06/13 03:28:37;;;;;;;0.40;0.20;;;;;;;14.23;91.83;100559.63;4972622;28;20535;-50
2022/06/13 03:31:18;;;;;;;0.70;0.70;;;;;;;14.30;91.75;100554.91;4982817;28;20453;-50
2022/06/13 03:33:49;;;;;;;0.50;0.30;;;;;;;14.24;91.70;100568.50;4985766;28;20466;-50
2022/06/13 03:36:29;;;;;;;0.40;0.20;;;;;;;14.20;92.02;100572.25;4989578;28;20505;-50
2022/06/13 03:39:20;;;;;;;0.40;0.20;;;;;;;14.18;91.82;100574.09;4989277;28;20445;-50
2022/06/13 03:41:58;;;;;;;0.40;0.20;;;;;;;14.43;90.62;100582.03;4986662;28;20505;-50
2022/06/13 03:44:33;;;;;;;0.90;0.60;;;;;;;14.36;91.02;100583.19;4981842;28;20465;-50
2022/06/13 03:47:08;;;;;;;0.67;0.67;;;;;;;14.30;91.37;100584.34;4989425;28;20477;-50
2022/06/13 03:49:37;;;;;;;0.40;0.20;;;;;;;14.39;90.99;100583.06;4984017;28;20930;-50
2022/06/13 03:52:09;;;;;;;0.47;0.37;;;;;;;14.35;91.58;100584.13;4982520;28;20820;-49
2022/06/13 03:54:54;;;;;;;2.87;1.03;;;;;;;14.20;91.71;100589.16;4977483;28;21032;-50
2022/06/13 03:57:48;;;;;;;0.40;0.20;;;;;;;14.12;92.79;100587.72;4979889;28;20481;-50
2022/06/13 04:00:31;;;;;;;0.40;0.20;;;;;;;14.36;92.03;100586.75;4967065;28;20451;-49
2022/06/13 04:03:00;;;;;;;0.40;0.20;;;;;;;14.46;91.39;100596.19;4987040;28;20523;-50
2022/06/13 04:05:42;;;;;;;0.40;0.20;;;;;;;14.46;91.90;100598.88;4982450;28;20449;-50
2022/06/13 04:08:12;;;;;;;0.50;0.37;;;;;;;14.49;92.54;100598.75;4982381;28;20478;-49
2022/06/13 04:10:57;;;;;;;3.70;0.63;;;;;;;14.51;92.34;100599.53;4987597;28;20455;-51
2022/06/13 04:13:51;;;;;;;0.40;0.20;;;;;;;14.88;90.66;100610.56;4988560;28;20503;-50
2022/06/13 04:16:51;;;;;;;0.57;0.57;;;;;;;14.80;91.59;100608.19;4977307;28;20442;-50
2022/06/13 04:19:42;;;;;;;0.40;0.27;;;;;;;14.93;90.97;100609.44;4982912;28;20458;-50
2022/06/13 04:22:19;;;;;;;0.40;0.30;;;;;;;15.27;90.37;100603.56;4975171;28;20496;-50
2022/06/13 04:24:57;;;;;;;0.40;0.30;;;;;;;15.24;89.21;100601.00;4982602;28;20461;-50
2022/06/13 04:27:31;;;;;;;0.93;0.93;;;;;;;15.52;88.41;100615.91;4983012;28;20478;-50
2022/06/13 04:30:10;;;;;;;0.47;0.30;;;;;;;16.11;86.88;100607.88;4969738;28;20484;-50
2022/06/13 04:33:01;;;;;;;0.47;0.37;;;;;;;18.05;79.39;100606.19;4981753;28;20450;-50
2022/06/13 04:35:33;;;;;;;0.50;0.30;;;;;;;18.18;75.53;100611.78;4983030;28;20503;-51
2022/06/13 04:38:03;;;;;;;0.40;0.20;;;;;;;18.47;73.27;100619.09;4988083;28;20834;-51
2022/06/13 04:40:34;;;;;;;0.40;0.20;;;;;;;18.69;72.58;100617.94;4988792;28;20536;-50
2022/06/13 04:43:05;;;;;;;0.40;0.20;;;;;;;19.19;69.96;100621.28;4963166;28;20471;-51
2022/06/13 04:45:46;;;;;;;0.40;0.30;;;;;;;19.78;67.44;100615.97;4980825;28;20502;-51
2022/06/13 04:48:14;;;;;;;0.50;0.40;;;;;;;20.24;65.77;100626.56;4985019;28;20862;-51
2022/06/13 04:50:50;;;;;;;0.50;0.30;;;;;;;20.41;64.71;100621.84;4988346;28;20509;-51
2022/06/13 04:53:22;;;;;;;0.83;0.83;;;;;;;20.49;64.05;100621.38;4986694;28;20493;-50
2022/06/13 04:55:51;;;;;;;1.13;1.03;;;;;;;20.69;62.80;100626.34;4981807;28;20790;-50
2022/06/13 04:58:26;;;;;;;0.40;0.20;;;;;;;20.58;63.55;100617.22;4982272;28;20493;-50
2022/06/13 05:01:02;;;;;;;0.50;0.30;;;;;;;20.50;62.79;100619.53;4969605;28;20453;-50
2022/06/13 05:03:35;;;;;;;0.50;0.43;;;;;;;21.10;60.95;100630.84;4981365;28;20473;-50
2022/06/13 05:06:06;;;;;;;0.40;0.30;;;;;;;21.85;57.94;100629.34;4985326;28;20453;-51
2022/06/13 05:08:40;;;;;;;1.67;1.23;;;;;;;22.23;56.89;100635.75;4987899;28;20537;-51
2022/06/13 05:11:22;;;;;;;0.50;0.30;;;;;;;21.90;58.32;100631.72;4986075;28;20441;-51
2022/06/13 05:13:53;;;;;;;0.53;0.53;;;;;;;22.16;56.75;100636.19;4987942;28;20474;-51
2022/06/13 05:16:50;;;;;;;0.50;0.30;;;;;;;23.23;54.00;100628.31;4973602;28;20978;-51
2022/06/13 05:19:25;;;;;;;0.47;0.33;;;;;;;22.60;54.62;100634.81;4987541;28;20442;-51
2022/06/13 05:22:16;;;;;;;1.00;0.97;;;;;;;22.88;55.01;100640.94;4969979;28;20453;-51
2022/06/13 05:24:46;;;;;;;0.40;0.30;;;;;;;22.42;55.77;100642.44;4963498;28;20521;-51
2022/06/13 05:27:13;;;;;;;0.50;0.30;;;;;;;22.49;54.99;100642.88;4985666;28;20507;-51
2022/06/13 05:29:39;;;;;;;0.50;0.50;;;;;;;22.35;55.38;100643.00;4980944;28;20489;-51
2022/06/13 05:32:08;;;;;;;0.73;0.70;;;;;;;22.85;53.87;100652.00;4982908;28;20513;-51
2022/06/13 05:34:37;;;;;;;0.60;0.33;;;;;;;22.95;53.33;100653.06;4987149;28;20987;-51
2022/06/13 05:37:04;;;;;;;0.60;0.60;;;;;;;23.29;52.81;100657.69;4986683;28;20457;-51
2022/06/13 05:39:33;;;;;;;0.50;0.30;;;;;;;22.85;53.69;100657.44;4980783;28;20449;-51
2022/06/13 05:41:59;;;;;;;1.90;0.60;;;;;;;22.34;54.71;100657.50;4980962;28;20482;-51
2022/06/13 05:44:26;;;;;;;0.50;0.40;;;;;;;22.49;54.18;100653.72;4986809;28;20874;-51
2022/06/13 05:46:53;;;;;;;0.50;0.30;;;;;;;22.76;53.82;100658.97;4986712;28;20537;-51
2022/06/13 05:49:19;;;;;;;1.20;1.20;;;;;;;22.88;53.87;100660.78;4980498;28;20492;-51
2022/06/13 05:51:46;;;;;;;0.60;0.60;;;;;;;22.69;54.42;100660.38;4981078;28;20455;-51
2022/06/13 05:54:15;;;;;;;0.40;0.30;;;;;;;22.72;54.29;100658.31;4986632;28;20482;-51
2022/06/13 05:56:41;;;;;;;1.93;0.50;;;;;;;22.87;54.58;100660.91;4986983;28;20489;-51
2022/06/13 05:59:09;;;;;;;0.50;0.37;;;;;;;23.34;53.57;100665.50;4967556;28;20527;-51
2022/06/13 06:01:36;;;;;;;0.40;0.30;;;;;;;22.69;54.77;100665.81;4980237;28;20509;-51
2022/06/13 06:04:03;;;;;;;48.07;1.03;;;;;;;23.63;51.32;100666.88;4986705;28;20497;-51
2022/06/13 06:06:32;;;;;;;0.40;0.30;;;;;;;23.40;52.29;100659.59;4986876;28;20500;-51
2022/06/13 06:09:00;;;;;;;0.50;0.30;;;;;;;23.16;51.54;100665.00;4980789;28;20485;-51
2022/06/13 06:11:29;;;;;;;0.50;0.30;;;;;;;23.31;53.27;100658.47;4980418;28;20451;-51
2022/06/13 06:13:56;;;;;;;0.40;0.23;;;;;;;23.81;50.90;100666.44;4985220;28;20537;-51
2022/06/13 06:16:25;;;;;;;0.50;0.33;;;;;;;24.17;48.98;100663.56;4975588;28;20449;-51
2022/06/13 06:18:53;;;;;;;1.63;1.23;;;;;;;24.20;48.65;100667.88;4984440;28;20481;-51
2022/06/13 06:21:20;;;;;;;0.70;0.50;;;;;;;23.04;51.73;100661.41;4988860;28;20934;-51
2022/06/13 06:23:46;;;;;;;4.53;1.70;;;;;;;23.40;50.89;100664.16;4983382;28;20513;-51
2022/06/13 06:26:21;;;;;;;2.43;2.23;;;;;;;23.29;51.18;100667.66;4986568;28;20442;-51
2022/06/13 06:28:48;;;;;;;0.43;0.27;;;;;;;23.41;50.71;100664.03;4984645;28;20559;-51
2022/06/13 06:31:15;;;;;;;4.93;1.17;;;;;;;23.20;51.76;100669.25;4980802;28;20519;-51
2022/06/13 06:33:42;;;;;;;0.50;0.30;;;;;;;23.72;51.27;100676.19;4981474;28;20478;-51
2022/06/13 06:36:12;;;;;;;0.60;0.60;;;;;;;24.16;49.66;100669.97;4986766;28;20512;-52
2022/06/13 06:38:39;;;;;;;0.50;0.47;;;;;;;23.61;48.83;100673.41;4985268;28;20453;-51
2022/06/13 06:41:06;;;;;;;0.87;0.87;;;;;;;23.66;50.30;100673.06;4961044;28;20506;-51
2022/06/13 06:43:32;;;;;;;0.50;0.30;;;;;;;22.90;51.26;100674.25;4985512;28;20520;-51
2022/06/13 06:45:59;;;;;;;0.57;0.57;;;;;;;22.85;50.53;100671.00;4979950;28;20475;-51
2022/06/13 06:48:26;;;;;;;0.40;0.33;;;;;;;22.95;51.34;100670.22;4980060;28;20557;-51
2022/06/13 06:50:53;;;;;;;0.40;0.30;;;;;;;22.92;51.86;100665.03;4986232;28;20455;-51
2022/06/13 06:53:23;;;;;;;0.40;0.30;;;;;;;22.85;51.38;100663.72;4985985;28;20481;-52
2022/06/13 07:01:27;;;;;;;0.40;0.30;;;;;;;22.92;47.77;100675.88;4980442;28;20853;-51
2022/06/13 07:03:54;;;;;;;0.53;0.53;;;;;;;23.34;47.61;100677.22;4967350;28;20527;-51
2022/06/13 07:06:20;;;;;;;0.63;0.63;;;;;;;23.53;47.20;100675.81;4979187;28;20454;-51
2022/06/13 07:08:47;;;;;;;0.50;0.37;;;;;;;23.21;48.73;100679.13;4985472;28;20486;-51
2022/06/13 07:14:04;;;;;;;0.40;0.30;;;;;;;23.47;46.59;100684.44;4983426;28;20520;-51
2022/06/13 07:16:30;;;;;;;0.40;0.30;;;;;;;23.92;45.46;100689.06;4978229;28;20449;-51
2022/06/13 07:18:57;;;;;;;0.40;0.20;;;;;;;23.86;46.36;100684.13;4982986;28;20462;-51
2022/06/13 07:21:24;;;;;;;1.43;1.33;;;;;;;23.66;45.92;100687.50;4989387;28;20453;-51
2022/06/13 07:23:51;;;;;;;0.40;0.30;;;;;;;23.70;47.91;100683.53;4983040;28;20470;-51
2022/06/13 07:26:18;;;;;;;2.63;1.40;;;;;;;24.15;46.50;100692.69;4982270;28;20483;-51
2022/06/13 07:28:49;;;;;;;0.53;0.30;;;;;;;23.91;47.67;100681.03;4964347;28;20493;-51
2022/06/13 07:31:23;;;;;;;0.40;0.30;;;;;;;23.54;47.97;100686.53;4986127;28;20450;-51
2022/06/13 07:33:50;;;;;;;0.50;0.30;;;;;;;23.59;47.49;100694.38;4985263;28;20470;-51
2022/06/13 07:36:18;;;;;;;1.07;0.60;;;;;;;23.68;44.96;100693.66;4974112;28;20509;-51
2022/06/13 07:38:45;;;;;;;0.40;0.20;;;;;;;23.19;42.44;100691.94;4984891;28;20450;-51
2022/06/13 07:41:17;;;;;;;0.50;0.30;;;;;;;23.34;42.73;100695.34;4979232;28;20449;-51
2022/06/13 07:43:44;;;;;;;0.40;0.30;;;;;;;23.41;42.04;100693.00;4979409;28;20498;-51
2022/06/13 07:46:12;;;;;;;0.67;0.67;;;;;;;23.22;43.76;100689.00;4984290;28;20461;-50
2022/06/13 07:48:39;;;;;;;0.40;0.30;;;;;;;23.57;44.31;100689.09;4979933;28;20490;-51
2022/06/13 07:51:06;;;;;;;1.00;0.50;;;;;;;23.25;42.81;100687.88;4983815;28;20902;-50
2022/06/13 07:53:34;;;;;;;29.33;1.83;;;;;;;22.93;43.35;100684.88;4982681;28;20494;-51
2022/06/13 07:56:23;;;;;;;0.50;0.50;;;;;;;22.85;45.87;100685.41;4985158;28;20544;-51
2022/06/13 07:58:53;;;;;;;0.40;0.20;;;;;;;22.89;45.75;100683.34;4988874;28;20481;-51
2022/06/13 08:01:21;;;;;;;0.43;0.27;;;;;;;23.23;45.29;100676.28;4988111;28;20454;-51
2022/06/13 08:03:49;;;;;;;0.50;0.50;;;;;;;23.56;45.69;100681.00;4982361;28;20469;-51
2022/06/13 08:06:16;;;;;;;0.50;0.40;;;;;;;23.30;45.23;100681.16;4983299;28;20509;-51
2022/06/13 08:08:45;;;;;;;0.80;0.80;;;;;;;22.91;45.61;100679.56;4989195;28;20521;-51
2022/06/13 08:11:30;;;;;;;0.50;0.40;;;;;;;23.47;45.59;100684.44;4987535;28;20507;-51
2022/06/13 08:13:57;;;;;;;0.40;0.20;;;;;;;23.92;44.46;100680.91;4975764;28;20473;-53
2022/06/13 08:16:24;;;;;;;0.40;0.20;;;;;;;24.38;45.76;100684.59;4981535;28;20450;-53
2022/06/13 08:18:50;;;;;;;0.50;0.40;;;;;;;24.45;45.68;100685.84;4986758;28;20474;-51
2022/06/13 08:21:17;;;;;;;0.77;0.77;;;;;;;24.19;44.25;100685.16;4991525;28;20504;-51
2022/06/13 08:23:45;;;;;;;0.40;0.20;;;;;;;24.54;43.73;100686.97;4986355;28;20521;-51
2022/06/13 08:26:12;;;;;;;0.50;0.40;;;;;;;24.41;43.80;100692.53;4988832;28;20521;-51
2022/06/13 08:28:38;;;;;;;0.40;0.20;;;;;;;24.00;44.93;100684.91;4985269;28;20493;-51
2022/06/13 08:31:09;;;;;;;0.40;0.30;;;;;;;24.20;43.63;100682.31;4981525;28;20939;-52
2022/06/13 08:33:37;;;;;;;0.93;0.73;;;;;;;25.28;41.59;100686.25;4985121;28;20467;-51
2022/06/13 08:36:08;;;;;;;0.60;0.40;;;;;;;24.63;42.39;100681.63;4988355;28;20871;-53
2022/06/13 08:38:35;;;;;;;0.40;0.20;;;;;;;24.30;42.62;100687.94;4987116;28;20508;-53
2022/06/13 08:41:11;;;;;;;1.47;1.37;;;;;;;24.36;41.50;100686.56;4981548;28;20509;-54
2022/06/13 08:44:22;;;;;;;0.57;0.40;;;;;;;24.33;41.49;100692.25;4981676;28;20469;-53
2022/06/13 08:47:16;;;;;;;0.60;0.60;;;;;;;24.60;41.27;100686.47;4908851;29;20464;-52
2022/06/13 08:49:47;;;;;;;0.77;0.73;;;;;;;25.05;39.24;100695.47;4897216;29;20556;-53
2022/06/13 08:52:27;;;;;;;0.50;0.37;;;;;;;25.34;38.36;100695.75;4962938;28;20449;-53
2022/06/13 08:55:10;;;;;;;0.40;0.20;;;;;;;24.15;39.84;100697.28;4982504;28;20508;-54
2022/06/13 08:57:42;;;;;;;0.40;0.20;;;;;;;24.32;39.06;100709.53;4971671;28;20446;-53
2022/06/13 09:00:15;;;;;;;0.40;0.20;;;;;;;24.67;37.65;100698.56;4980505;28;20447;-53
2022/06/13 09:02:57;;;;;;;1.60;1.33;;;;;;;25.03;37.60;100701.03;4985266;28;20455;-53
2022/06/13 09:05:35;;;;;;;0.40;0.20;;;;;;;25.03;37.65;100709.19;4988175;28;21020;-53
2022/06/13 09:08:12;;;;;;;0.50;0.30;;;;;;;25.24;36.19;100714.72;4987854;28;20478;-54
2022/06/13 09:11:06;;;;;;;1.37;1.27;;;;;;;25.16;36.00;100709.03;4974895;28;20485;-53
2022/06/13 09:13:45;;;;;;;0.40;0.27;;;;;;;25.11;36.92;100703.13;4987840;28;20509;-53
2022/06/13 09:16:15;;;;;;;0.50;0.30;;;;;;;25.25;35.93;100713.72;4975698;28;20509;-53
2022/06/13 09:19:07;;;;;;;6.23;0.50;;;;;;;25.32;35.22;100719.50;4986555;28;20940;-50
2022/06/13 09:21:46;;;;;;;1.23;1.13;;;;;;;24.66;36.46;100707.69;4992547;28;20445;-53
2022/06/13 09:24:18;;;;;;;0.50;0.30;;;;;;;24.63;36.62;100711.53;4981241;28;20470;-53
2022/06/13 09:27:00;;;;;;;0.50;0.40;;;;;;;25.21;37.05;100705.94;4971983;28;20614;-53
2022/06/13 09:29:51;;;;;;;0.40;0.30;;;;;;;24.60;37.78;100710.94;4981125;28;20490;-53
2022/06/13 09:32:21;;;;;;;0.67;0.63;;;;;;;24.55;38.49;100707.72;4981340;28;20543;-53
2022/06/13 09:34:56;;;;;;;6.10;1.17;;;;;;;24.34;38.10;100707.56;4968810;28;21052;-53
2022/06/13 09:37:33;;;;;;;0.40;0.20;;;;;;;24.21;38.51;100703.06;4980758;28;20894;-53
2022/06/13 09:40:00;;;;;;;0.40;0.30;;;;;;;24.50;38.23;100716.22;4984423;28;20986;-53
2022/06/13 09:42:46;;;;;;;0.40;0.20;;;;;;;24.18;38.76;100721.47;4987663;28;20481;-53
2022/06/13 09:45:27;;;;;;;0.50;0.30;;;;;;;24.10;38.66;100713.91;4979130;28;20940;-53
2022/06/13 09:48:15;;;;;;;0.40;0.20;;;;;;;24.28;39.54;100705.31;4971386;28;20441;-53
2022/06/13 09:50:52;;;;;;;0.50;0.40;;;;;;;24.41;38.29;100706.97;4980776;28;21032;-53
2022/06/13 09:53:34;;;;;;;0.60;0.50;;;;;;;24.77;37.78;100708.56;4981538;28;20544;-53
2022/06/13 09:56:07;;;;;;;0.40;0.20;;;;;;;25.64;36.23;100717.69;4970779;28;20449;-53
2022/06/13 09:59:07;;;;;;;0.43;0.30;;;;;;;26.23;35.73;100705.38;4980200;28;20486;-53
2022/06/13 10:01:48;;;;;;;0.40;0.30;;;;;;;26.16;34.62;100705.03;4980318;28;20490;-53
2022/06/13 10:04:21;;;;;;;0.57;0.37;;;;;;;26.51;33.83;100710.16;4984712;28;20505;-53
2022/06/13 10:07:07;;;;;;;0.70;0.63;;;;;;;25.34;34.93;100703.91;4987226;28;20883;-53
2022/06/13 10:10:00;;;;;;;0.73;0.73;;;;;;;25.51;35.00;100713.41;4986275;28;20487;-53
2022/06/13 10:12:29;;;;;;;14.73;0.97;;;;;;;25.39;35.89;100705.28;4970052;28;20959;-53
2022/06/13 10:15:21;;;;;;;0.40;0.20;;;;;;;25.24;36.52;100706.56;4976500;28;20503;-53
2022/06/13 10:18:06;;;;;;;0.53;0.50;;;;;;;25.27;36.33;100709.03;4986456;28;20476;-53
2022/06/13 10:20:36;;;;;;;0.40;0.20;;;;;;;24.96;36.53;100707.94;4984066;28;20528;-52
2022/06/13 10:23:24;;;;;;;0.70;0.70;;;;;;;25.09;36.93;100713.28;4989402;28;20856;-53
2022/06/13 10:26:18;;;;;;;0.53;0.50;;;;;;;24.86;37.18;100706.97;4986458;28;20450;-53
2022/06/13 10:29:11;;;;;;;0.40;0.30;;;;;;;25.08;37.27;100701.53;4974204;28;20862;-53
2022/06/13 10:32:02;;;;;;;0.93;0.93;;;;;;;25.97;37.40;100707.66;4968419;28;20453;-53
2022/06/13 10:34:57;;;;;;;0.87;0.87;;;;;;;25.70;36.43;100697.25;4979755;28;20472;-53
2022/06/13 10:37:23;;;;;;;0.50;0.30;;;;;;;25.77;36.34;100693.03;4979872;28;20454;-53
2022/06/13 10:39:55;;;;;;;0.50;0.30;;;;;;;26.61;35.01;100693.00;4985375;28;20482;-53
2022/06/13 10:42:26;;;;;;;0.40;0.20;;;;;;;26.71;36.32;100688.44;4989913;28;20481;-53
2022/06/13 10:44:54;;;;;;;0.40;0.30;;;;;;;26.62;35.44;100686.53;4977746;28;20792;-53
2022/06/13 10:47:21;;;;;;;1.23;0.80;;;;;;;26.69;34.40;100694.03;4986821;28;20900;-53
2022/06/13 10:49:54;;;;;;;0.50;0.37;;;;;;;26.34;35.04;100688.09;4982683;28;20521;-53
2022/06/13 10:52:25;;;;;;;0.53;0.43;;;;;;;25.58;33.92;100693.69;4979873;28;20457;-53
2022/06/13 10:54:56;;;;;;;1.07;0.53;;;;;;;25.94;34.88;100686.13;4982109;28;20462;-54
2022/06/13 10:57:40;;;;;;;0.40;0.30;;;;;;;26.08;35.49;100683.06;4986263;28;20501;-53
2022/06/13 11:00:19;;;;;;;0.40;0.20;;;;;;;25.59;36.58;100676.34;4986693;28;20441;-53
2022/06/13 11:02:47;;;;;;;5.30;0.60;;;;;;;25.75;36.66;100683.25;4982011;28;20491;-53
2022/06/13 11:05:21;;;;;;;0.50;0.30;;;;;;;25.25;37.62;100681.06;4979427;28;20560;-53
2022/06/13 11:07:51;;;;;;;2.53;0.60;;;;;;;25.48;37.59;100687.28;4982147;28;21011;-53
2022/06/13 11:10:40;;;;;;;1.23;1.17;;;;;;;25.62;37.30;100681.53;4986513;28;20494;-53
2022/06/13 11:13:16;;;;;;;0.53;0.53;;;;;;;25.55;36.85;100691.22;4986394;28;20484;-53
2022/06/13 11:24:48;;;;;;;1.83;0.50;;;;;;;26.54;36.34;100679.91;4982417;28;20469;-53
2022/06/13 11:27:40;;;;;;;0.40;0.30;;;;;;;27.04;35.13;100690.03;4984153;28;20442;-53
2022/06/13 11:30:31;;;;;;;0.50;0.40;;;;;;;26.24;35.94;100680.72;4985423;28;20912;-54
2022/06/13 11:33:21;;;;;;;1.57;0.90;;;;;;;25.77;36.78;100678.53;4983143;28;20520;-53
2022/06/13 11:35:49;;;;;;;0.90;0.90;;;;;;;26.64;35.69;100681.81;4968453;28;20455;-53
2022/06/13 11:38:31;;;;;;;1.03;1.03;;;;;;;26.43;35.68;100679.97;4985520;28;20946;-53
2022/06/13 11:41:13;;;;;;;1.77;0.80;;;;;;;26.31;35.52;100680.16;4982930;28;20469;-53
2022/06/13 11:44:06;;;;;;;1.33;0.73;;;;;;;26.19;35.18;100682.13;4982784;28;20466;-54
2022/06/13 11:46:45;;;;;;;0.50;0.40;;;;;;;25.82;36.71;100687.19;4972726;28;21029;-54
2022/06/13 11:49:14;;;;;;;0.50;0.30;;;;;;;26.18;35.80;100686.72;4982849;28;20457;-54
2022/06/13 11:51:49;;;;;;;23.67;1.00;;;;;;;26.10;36.59;100688.38;4983624;28;20955;-53
2022/06/13 11:54:41;;;;;;;0.40;0.30;;;;;;;26.28;37.13;100670.41;4983787;28;20535;-53
2022/06/13 11:57:29;;;;;;;2.50;0.40;;;;;;;26.44;36.31;100678.13;4980599;28;20450;-53
2022/06/13 12:00:03;;;;;;;0.60;0.60;;;;;;;25.86;37.38;100675.88;4989119;28;20458;-54
2022/06/13 12:02:39;;;;;;;0.60;0.60;;;;;;;25.73;39.34;100671.63;4984871;28;20453;-53
2022/06/13 12:05:23;;;;;;;0.50;0.40;;;;;;;25.81;39.22;100675.44;4982705;28;20828;-53
2022/06/13 12:08:04;;;;;;;0.50;0.37;;;;;;;25.40;40.50;100685.22;4983633;28;20413;-52
2022/06/13 12:10:37;;;;;;;0.50;0.40;;;;;;;25.72;39.53;100673.47;4971929;28;20918;-53
2022/06/13 12:13:13;;;;;;;3.13;2.10;;;;;;;25.66;38.96;100679.44;4982479;28;20523;-53
2022/06/13 12:15:49;;;;;;;1.70;0.80;;;;;;;26.02;39.86;100682.72;4985074;28;20470;-53
2022/06/13 12:18:24;;;;;;;0.90;0.90;;;;;;;25.38;40.50;100680.91;4988779;28;20453;-51
2022/06/13 12:20:59;;;;;;;1.13;0.60;;;;;;;25.56;39.72;100684.78;4988100;28;20853;-51